sensor_id;sensor_type;location;lat;lon;timestamp;temperature;humidity
27978;DHT22;15314;49.248;6.968;2023-12-22T00:00:31;8.20;99.90
27978;DHT22;15314;49.248;6.968;2023-12-22T00:01:32;8.20;99.90
27978;DHT22;15314;49.248;6.968;2023-12-22T00:02:33;8.30;99.90
27978;DHT22;15314;49.248;6.968;2023-12-22T00:03:33;8.20;99.90
27978;DHT22;15314;49.248;6.968;2023-12-22T00:04:34;8.10;99.90
27978;DHT22;15314;49.248;6.968;2023-12-22T00:05:35;8.10;99.90
27978;DHT22;15314;49.248;6.968;2023-12-22T00:06:35;8.10;99.90
27978;DHT22;15314;49.248;6.968;2023-12-22T00:07:36;8.00;99.90
27978;DHT22;15314;49.248;6.968;2023-12-22T00:08:37;8.00;99.90
27978;DHT22;15314;49.248;6.968;2023-12-22T00:09:37;7.90;99.90
27978;DHT22;15314;49.248;6.968;2023-12-22T00:10:38;7.90;99.90
27978;DHT22;15314;49.248;6.968;2023-12-22T00:11:39;7.90;99.90
27978;DHT22;15314;49.248;6.968;2023-12-22T00:12:39;7.80;99.90
27978;DHT22;15314;49.248;6.968;2023-12-22T00:13:41;7.80;99.90
27978;DHT22;15314;49.248;6.968;2023-12-22T00:14:41;7.80;99.90
27978;DHT22;15314;49.248;6.968;2023-12-22T00:15:42;7.80;99.90
27978;DHT22;15314;49.248;6.968;2023-12-22T00:16:43;7.90;99.90
27978;DHT22;15314;49.248;6.968;2023-12-22T00:17:44;7.90;99.90
27978;DHT22;15314;49.248;6.968;2023-12-22T00:18:44;7.80;99.90
27978;DHT22;15314;49.248;6.968;2023-12-22T00:19:45;7.80;99.90
27978;DHT22;15314;49.248;6.968;2023-12-22T00:20:45;7.80;99.90
27978;DHT22;15314;49.248;6.968;2023-12-22T00:21:46;7.80;99.90
27978;DHT22;15314;49.248;6.968;2023-12-22T00:22:47;7.70;99.90
27978;DHT22;15314;49.248;6.968;2023-12-22T00:23:47;7.70;99.90
27978;DHT22;15314;49.248;6.968;2023-12-22T00:24:48;7.70;99.90
27978;DHT22;15314;49.248;6.968;2023-12-22T00:25:49;7.70;99.90
27978;DHT22;15314;49.248;6.968;2023-12-22T00:26:49;7.70;99.90
27978;DHT22;15314;49.248;6.968;2023-12-22T00:27:50;7.70;99.90
27978;DHT22;15314;49.248;6.968;2023-12-22T00:28:50;7.70;99.90
27978;DHT22;15314;49.248;6.968;2023-12-22T00:29:51;7.70;99.90
27978;DHT22;15314;49.248;6.968;2023-12-22T00:30:52;7.70;99.90
27978;DHT22;15314;49.248;6.968;2023-12-22T00:31:52;7.70;99.90
27978;DHT22;15314;49.248;6.968;2023-12-22T00:32:53;7.70;99.90
27978;DHT22;15314;49.248;6.968;2023-12-22T00:33:53;7.70;99.90
27978;DHT22;15314;49.248;6.968;2023-12-22T00:34:54;7.70;99.90
27978;DHT22;15314;49.248;6.968;2023-12-22T00:35:58;7.70;99.90
27978;DHT22;15314;49.248;6.968;2023-12-22T00:36:58;7.70;99.90
27978;DHT22;15314;49.248;6.968;2023-12-22T00:38:00;7.70;99.90
27978;DHT22;15314;49.248;6.968;2023-12-22T00:39:01;7.70;99.90
27978;DHT22;15314;49.248;6.968;2023-12-22T00:40:02;7.70;99.90
27978;DHT22;15314;49.248;6.968;2023-12-22T00:41:05;7.80;99.90
27978;DHT22;15314;49.248;6.968;2023-12-22T00:42:06;7.80;99.90
27978;DHT22;15314;49.248;6.968;2023-12-22T00:43:07;7.80;99.90
27978;DHT22;15314;49.248;6.968;2023-12-22T00:44:07;7.80;99.90
27978;DHT22;15314;49.248;6.968;2023-12-22T00:45:08;7.70;99.90
27978;DHT22;15314;49.248;6.968;2023-12-22T00:46:09;7.70;99.90
27978;DHT22;15314;49.248;6.968;2023-12-22T00:47:10;7.80;99.90
27978;DHT22;15314;49.248;6.968;2023-12-22T00:48:10;7.70;99.90
27978;DHT22;15314;49.248;6.968;2023-12-22T00:49:11;7.80;99.90
27978;DHT22;15314;49.248;6.968;2023-12-22T00:50:12;7.80;99.90
27978;DHT22;15314;49.248;6.968;2023-12-22T00:51:12;7.90;99.90
27978;DHT22;15314;49.248;6.968;2023-12-22T00:52:13;8.10;99.90
27978;DHT22;15314;49.248;6.968;2023-12-22T00:53:14;8.00;99.90
27978;DHT22;15314;49.248;6.968;2023-12-22T00:54:15;8.00;99.90
27978;DHT22;15314;49.248;6.968;2023-12-22T00:55:15;8.10;99.90
27978;DHT22;15314;49.248;6.968;2023-12-22T00:56:16;8.20;99.90
27978;DHT22;15314;49.248;6.968;2023-12-22T00:57:17;8.20;99.90
27978;DHT22;15314;49.248;6.968;2023-12-22T00:58:17;8.20;99.90
27978;DHT22;15314;49.248;6.968;2023-12-22T00:59:18;8.20;99.90
27978;DHT22;15314;49.248;6.968;2023-12-22T01:00:19;8.30;99.90
27978;DHT22;15314;49.248;6.968;2023-12-22T01:01:20;8.30;99.90
27978;DHT22;15314;49.248;6.968;2023-12-22T01:02:21;8.30;99.90
27978;DHT22;15314;49.248;6.968;2023-12-22T01:03:22;8.30;99.90
27978;DHT22;15314;49.248;6.968;2023-12-22T01:04:22;8.30;99.90
27978;DHT22;15314;49.248;6.968;2023-12-22T01:05:23;8.30;99.90
27978;DHT22;15314;49.248;6.968;2023-12-22T01:06:24;8.30;99.90
27978;DHT22;15314;49.248;6.968;2023-12-22T01:07:24;8.30;99.90
27978;DHT22;15314;49.248;6.968;2023-12-22T01:08:26;8.30;99.90
27978;DHT22;15314;49.248;6.968;2023-12-22T01:09:26;8.30;99.90
27978;DHT22;15314;49.248;6.968;2023-12-22T01:10:27;8.30;99.90
27978;DHT22;15314;49.248;6.968;2023-12-22T01:11:27;8.40;99.90
27978;DHT22;15314;49.248;6.968;2023-12-22T01:12:28;8.40;99.90
27978;DHT22;15314;49.248;6.968;2023-12-22T01:13:29;8.40;99.90
27978;DHT22;15314;49.248;6.968;2023-12-22T01:14:30;8.40;99.90
27978;DHT22;15314;49.248;6.968;2023-12-22T01:15:30;8.40;99.90
27978;DHT22;15314;49.248;6.968;2023-12-22T01:16:31;8.40;99.90
27978;DHT22;15314;49.248;6.968;2023-12-22T01:17:32;8.40;99.90
27978;DHT22;15314;49.248;6.968;2023-12-22T01:18:32;8.40;99.90
27978;DHT22;15314;49.248;6.968;2023-12-22T01:19:34;8.30;99.90
27978;DHT22;15314;49.248;6.968;2023-12-22T01:20:34;8.30;99.90
27978;DHT22;15314;49.248;6.968;2023-12-22T01:21:35;8.30;99.90
27978;DHT22;15314;49.248;6.968;2023-12-22T01:22:36;8.20;99.90
27978;DHT22;15314;49.248;6.968;2023-12-22T01:23:38;8.20;99.90
27978;DHT22;15314;49.248;6.968;2023-12-22T01:24:39;8.20;99.90
27978;DHT22;15314;49.248;6.968;2023-12-22T01:25:43;8.10;99.90
27978;DHT22;15314;49.248;6.968;2023-12-22T01:26:43;8.10;99.90
27978;DHT22;15314;49.248;6.968;2023-12-22T01:27:44;8.10;99.90
27978;DHT22;15314;49.248;6.968;2023-12-22T01:28:46;8.20;99.90
27978;DHT22;15314;49.248;6.968;2023-12-22T01:29:47;8.00;99.90
27978;DHT22;15314;49.248;6.968;2023-12-22T01:30:47;8.00;99.90
27978;DHT22;15314;49.248;6.968;2023-12-22T01:31:48;8.00;99.90
27978;DHT22;15314;49.248;6.968;2023-12-22T01:32:49;8.00;99.90
27978;DHT22;15314;49.248;6.968;2023-12-22T01:33:49;7.90;99.90
27978;DHT22;15314;49.248;6.968;2023-12-22T01:34:50;7.90;99.90
27978;DHT22;15314;49.248;6.968;2023-12-22T01:35:50;7.90;99.90
27978;DHT22;15314;49.248;6.968;2023-12-22T01:36:51;7.90;99.90
27978;DHT22;15314;49.248;6.968;2023-12-22T01:37:52;7.80;99.90
27978;DHT22;15314;49.248;6.968;2023-12-22T01:38:52;7.80;99.90
27978;DHT22;15314;49.248;6.968;2023-12-22T01:39:53;7.80;99.90
27978;DHT22;15314;49.248;6.968;2023-12-22T01:40:54;7.80;99.90
27978;DHT22;15314;49.248;6.968;2023-12-22T01:41:55;7.80;99.90
27978;DHT22;15314;49.248;6.968;2023-12-22T01:42:56;7.80;99.90
27978;DHT22;15314;49.248;6.968;2023-12-22T01:43:56;7.80;99.90
27978;DHT22;15314;49.248;6.968;2023-12-22T01:44:57;7.70;99.90
27978;DHT22;15314;49.248;6.968;2023-12-22T01:45:58;7.80;99.90
27978;DHT22;15314;49.248;6.968;2023-12-22T01:47:00;7.70;99.90
27978;DHT22;15314;49.248;6.968;2023-12-22T01:48:01;7.80;99.90
27978;DHT22;15314;49.248;6.968;2023-12-22T01:49:03;7.60;99.90
27978;DHT22;15314;49.248;6.968;2023-12-22T01:50:04;7.60;99.90
27978;DHT22;15314;49.248;6.968;2023-12-22T01:51:06;7.70;99.90
27978;DHT22;15314;49.248;6.968;2023-12-22T01:52:07;7.60;99.90
27978;DHT22;15314;49.248;6.968;2023-12-22T01:53:08;7.60;99.90
27978;DHT22;15314;49.248;6.968;2023-12-22T01:54:09;7.60;99.90
27978;DHT22;15314;49.248;6.968;2023-12-22T01:55:12;7.60;99.90
27978;DHT22;15314;49.248;6.968;2023-12-22T01:56:14;7.60;99.90
27978;DHT22;15314;49.248;6.968;2023-12-22T01:57:15;7.60;99.90
27978;DHT22;15314;49.248;6.968;2023-12-22T01:58:19;7.50;99.90
27978;DHT22;15314;49.248;6.968;2023-12-22T01:59:20;7.50;99.90
27978;DHT22;15314;49.248;6.968;2023-12-22T02:00:21;7.50;99.90
27978;DHT22;15314;49.248;6.968;2023-12-22T02:01:22;7.50;99.90
27978;DHT22;15314;49.248;6.968;2023-12-22T02:02:24;7.50;99.90
27978;DHT22;15314;49.248;6.968;2023-12-22T02:03:25;7.50;99.90
27978;DHT22;15314;49.248;6.968;2023-12-22T02:04:26;7.50;99.90
27978;DHT22;15314;49.248;6.968;2023-12-22T02:05:28;7.40;99.90
27978;DHT22;15314;49.248;6.968;2023-12-22T02:06:30;7.50;99.90
27978;DHT22;15314;49.248;6.968;2023-12-22T02:07:31;7.50;99.90
27978;DHT22;15314;49.248;6.968;2023-12-22T02:08:32;7.50;99.90
27978;DHT22;15314;49.248;6.968;2023-12-22T02:09:34;7.50;99.90
27978;DHT22;15314;49.248;6.968;2023-12-22T02:10:34;7.60;99.90
27978;DHT22;15314;49.248;6.968;2023-12-22T02:11:37;7.60;99.90
27978;DHT22;15314;49.248;6.968;2023-12-22T02:12:39;7.60;99.90
27978;DHT22;15314;49.248;6.968;2023-12-22T02:13:40;7.60;99.90
27978;DHT22;15314;49.248;6.968;2023-12-22T02:14:41;7.50;99.90
27978;DHT22;15314;49.248;6.968;2023-12-22T02:15:41;7.50;99.90
27978;DHT22;15314;49.248;6.968;2023-12-22T02:16:49;7.50;99.90
27978;DHT22;15314;49.248;6.968;2023-12-22T02:18:09;7.50;99.90
27978;DHT22;15314;49.248;6.968;2023-12-22T02:20:36;7.50;99.90
27978;DHT22;15314;49.248;6.968;2023-12-22T02:22:07;7.50;99.90
27978;DHT22;15314;49.248;6.968;2023-12-22T02:23:08;7.50;99.90
27978;DHT22;15314;49.248;6.968;2023-12-22T02:24:09;7.50;99.90
27978;DHT22;15314;49.248;6.968;2023-12-22T02:25:09;7.50;99.90
27978;DHT22;15314;49.248;6.968;2023-12-22T02:26:17;7.60;99.90
27978;DHT22;15314;49.248;6.968;2023-12-22T02:28:40;7.70;99.90
27978;DHT22;15314;49.248;6.968;2023-12-22T02:29:46;7.70;99.90
27978;DHT22;15314;49.248;6.968;2023-12-22T02:31:01;7.70;99.90
27978;DHT22;15314;49.248;6.968;2023-12-22T02:32:07;7.80;99.90
27978;DHT22;15314;49.248;6.968;2023-12-22T02:33:10;7.80;99.90
27978;DHT22;15314;49.248;6.968;2023-12-22T02:34:14;7.80;99.90
27978;DHT22;15314;49.248;6.968;2023-12-22T02:35:26;7.80;99.90
27978;DHT22;15314;49.248;6.968;2023-12-22T02:36:27;7.80;99.90
27978;DHT22;15314;49.248;6.968;2023-12-22T02:37:30;7.90;99.90
27978;DHT22;15314;49.248;6.968;2023-12-22T02:38:31;7.90;99.90
27978;DHT22;15314;49.248;6.968;2023-12-22T02:39:34;7.90;99.90
27978;DHT22;15314;49.248;6.968;2023-12-22T02:40:35;7.90;99.90
27978;DHT22;15314;49.248;6.968;2023-12-22T02:41:36;7.90;99.90
27978;DHT22;15314;49.248;6.968;2023-12-22T02:42:38;7.90;99.90
27978;DHT22;15314;49.248;6.968;2023-12-22T02:43:39;7.90;99.90
27978;DHT22;15314;49.248;6.968;2023-12-22T02:44:40;7.90;99.90
27978;DHT22;15314;49.248;6.968;2023-12-22T02:45:40;7.90;99.90
27978;DHT22;15314;49.248;6.968;2023-12-22T02:46:41;7.90;99.90
27978;DHT22;15314;49.248;6.968;2023-12-22T02:47:44;7.90;99.90
27978;DHT22;15314;49.248;6.968;2023-12-22T02:48:45;8.00;99.90
27978;DHT22;15314;49.248;6.968;2023-12-22T02:49:45;8.00;99.90
27978;DHT22;15314;49.248;6.968;2023-12-22T02:50:46;8.10;99.90
27978;DHT22;15314;49.248;6.968;2023-12-22T02:51:47;8.10;99.90
27978;DHT22;15314;49.248;6.968;2023-12-22T02:52:47;8.10;99.90
27978;DHT22;15314;49.248;6.968;2023-12-22T02:53:48;8.20;99.90
27978;DHT22;15314;49.248;6.968;2023-12-22T02:54:48;8.20;99.90
27978;DHT22;15314;49.248;6.968;2023-12-22T02:55:49;8.30;99.90
27978;DHT22;15314;49.248;6.968;2023-12-22T02:56:50;8.30;99.90
27978;DHT22;15314;49.248;6.968;2023-12-22T02:57:50;8.30;99.90
27978;DHT22;15314;49.248;6.968;2023-12-22T02:58:51;8.30;99.90
27978;DHT22;15314;49.248;6.968;2023-12-22T02:59:51;8.30;99.90
27978;DHT22;15314;49.248;6.968;2023-12-22T03:00:52;8.20;99.90
27978;DHT22;15314;49.248;6.968;2023-12-22T03:01:53;8.20;99.90
27978;DHT22;15314;49.248;6.968;2023-12-22T03:02:53;8.20;99.90
27978;DHT22;15314;49.248;6.968;2023-12-22T03:03:54;8.10;99.90
27978;DHT22;15314;49.248;6.968;2023-12-22T03:04:54;8.10;99.90
27978;DHT22;15314;49.248;6.968;2023-12-22T03:05:55;8.10;99.90
27978;DHT22;15314;49.248;6.968;2023-12-22T03:06:56;8.10;99.90
27978;DHT22;15314;49.248;6.968;2023-12-22T03:07:56;8.00;99.90
27978;DHT22;15314;49.248;6.968;2023-12-22T03:08:57;7.90;99.90
27978;DHT22;15314;49.248;6.968;2023-12-22T03:09:57;7.90;99.90
27978;DHT22;15314;49.248;6.968;2023-12-22T03:10:58;7.80;99.90
27978;DHT22;15314;49.248;6.968;2023-12-22T03:11:59;7.90;99.90
27978;DHT22;15314;49.248;6.968;2023-12-22T03:13:02;7.90;99.90
27978;DHT22;15314;49.248;6.968;2023-12-22T03:14:03;7.90;99.90
27978;DHT22;15314;49.248;6.968;2023-12-22T03:15:04;7.90;99.90
27978;DHT22;15314;49.248;6.968;2023-12-22T03:16:08;7.90;99.90
27978;DHT22;15314;49.248;6.968;2023-12-22T03:17:09;7.90;99.90
27978;DHT22;15314;49.248;6.968;2023-12-22T03:18:11;7.80;99.90
27978;DHT22;15314;49.248;6.968;2023-12-22T03:19:12;7.80;99.90
27978;DHT22;15314;49.248;6.968;2023-12-22T03:20:12;7.90;99.90
27978;DHT22;15314;49.248;6.968;2023-12-22T03:21:17;7.80;99.90
27978;DHT22;15314;49.248;6.968;2023-12-22T03:22:19;7.90;99.90
27978;DHT22;15314;49.248;6.968;2023-12-22T03:23:20;7.90;99.90
27978;DHT22;15314;49.248;6.968;2023-12-22T03:24:20;7.80;99.90
27978;DHT22;15314;49.248;6.968;2023-12-22T03:25:22;7.80;99.90
27978;DHT22;15314;49.248;6.968;2023-12-22T03:26:27;7.80;99.90
27978;DHT22;15314;49.248;6.968;2023-12-22T03:27:28;7.80;99.90
27978;DHT22;15314;49.248;6.968;2023-12-22T03:28:28;7.80;99.90
27978;DHT22;15314;49.248;6.968;2023-12-22T03:29:29;7.70;99.90
27978;DHT22;15314;49.248;6.968;2023-12-22T03:30:30;7.70;99.90
27978;DHT22;15314;49.248;6.968;2023-12-22T03:31:30;7.70;99.90
27978;DHT22;15314;49.248;6.968;2023-12-22T03:32:31;7.70;99.90
27978;DHT22;15314;49.248;6.968;2023-12-22T03:33:32;7.70;99.90
27978;DHT22;15314;49.248;6.968;2023-12-22T03:34:33;7.80;99.90
27978;DHT22;15314;49.248;6.968;2023-12-22T03:35:34;7.80;99.90
27978;DHT22;15314;49.248;6.968;2023-12-22T03:36:34;7.80;99.90
27978;DHT22;15314;49.248;6.968;2023-12-22T03:37:35;7.90;99.90
27978;DHT22;15314;49.248;6.968;2023-12-22T03:38:36;7.90;99.90
27978;DHT22;15314;49.248;6.968;2023-12-22T03:39:36;7.90;99.90
27978;DHT22;15314;49.248;6.968;2023-12-22T03:40:37;7.90;99.90
27978;DHT22;15314;49.248;6.968;2023-12-22T03:41:38;7.90;99.90
27978;DHT22;15314;49.248;6.968;2023-12-22T03:42:38;7.90;99.90
27978;DHT22;15314;49.248;6.968;2023-12-22T03:43:39;7.90;99.90
27978;DHT22;15314;49.248;6.968;2023-12-22T03:44:39;7.90;99.90
27978;DHT22;15314;49.248;6.968;2023-12-22T03:45:40;7.90;99.90
27978;DHT22;15314;49.248;6.968;2023-12-22T03:46:41;8.00;99.90
27978;DHT22;15314;49.248;6.968;2023-12-22T03:47:41;7.90;99.90
27978;DHT22;15314;49.248;6.968;2023-12-22T03:48:42;7.90;99.90
27978;DHT22;15314;49.248;6.968;2023-12-22T03:49:42;7.90;99.90
27978;DHT22;15314;49.248;6.968;2023-12-22T03:50:43;7.90;99.90
27978;DHT22;15314;49.248;6.968;2023-12-22T03:51:44;7.90;99.90
27978;DHT22;15314;49.248;6.968;2023-12-22T03:52:44;7.80;99.90
27978;DHT22;15314;49.248;6.968;2023-12-22T03:53:45;7.80;99.90
27978;DHT22;15314;49.248;6.968;2023-12-22T03:54:45;7.80;99.90
27978;DHT22;15314;49.248;6.968;2023-12-22T03:55:46;7.80;99.90
27978;DHT22;15314;49.248;6.968;2023-12-22T03:56:47;7.80;99.90
27978;DHT22;15314;49.248;6.968;2023-12-22T03:57:47;7.80;99.90
27978;DHT22;15314;49.248;6.968;2023-12-22T03:58:48;7.80;99.90
27978;DHT22;15314;49.248;6.968;2023-12-22T03:59:49;7.90;99.90
27978;DHT22;15314;49.248;6.968;2023-12-22T04:00:49;7.80;99.90
27978;DHT22;15314;49.248;6.968;2023-12-22T04:01:51;7.80;99.90
27978;DHT22;15314;49.248;6.968;2023-12-22T04:02:52;7.90;99.90
27978;DHT22;15314;49.248;6.968;2023-12-22T04:03:53;7.80;99.90
27978;DHT22;15314;49.248;6.968;2023-12-22T04:04:54;7.90;99.90
27978;DHT22;15314;49.248;6.968;2023-12-22T04:05:54;7.90;99.90
27978;DHT22;15314;49.248;6.968;2023-12-22T04:06:55;8.00;99.90
27978;DHT22;15314;49.248;6.968;2023-12-22T04:07:56;7.90;99.90
27978;DHT22;15314;49.248;6.968;2023-12-22T04:08:56;7.90;99.90
27978;DHT22;15314;49.248;6.968;2023-12-22T04:09:57;7.90;99.90
27978;DHT22;15314;49.248;6.968;2023-12-22T04:10:58;7.90;99.90
27978;DHT22;15314;49.248;6.968;2023-12-22T04:11:59;7.90;99.90
27978;DHT22;15314;49.248;6.968;2023-12-22T04:12:59;7.80;99.90
27978;DHT22;15314;49.248;6.968;2023-12-22T04:14:00;7.80;99.90
27978;DHT22;15314;49.248;6.968;2023-12-22T04:15:01;7.80;99.90
27978;DHT22;15314;49.248;6.968;2023-12-22T04:16:01;7.80;99.90
27978;DHT22;15314;49.248;6.968;2023-12-22T04:17:05;7.90;99.90
27978;DHT22;15314;49.248;6.968;2023-12-22T04:18:05;7.80;99.90
27978;DHT22;15314;49.248;6.968;2023-12-22T04:19:06;7.80;99.90
27978;DHT22;15314;49.248;6.968;2023-12-22T04:20:07;7.80;99.90
27978;DHT22;15314;49.248;6.968;2023-12-22T04:21:08;7.80;99.90
27978;DHT22;15314;49.248;6.968;2023-12-22T04:22:09;7.90;99.90
27978;DHT22;15314;49.248;6.968;2023-12-22T04:23:09;7.80;99.90
27978;DHT22;15314;49.248;6.968;2023-12-22T04:24:10;7.80;99.90
27978;DHT22;15314;49.248;6.968;2023-12-22T04:25:11;7.80;99.90
27978;DHT22;15314;49.248;6.968;2023-12-22T04:26:12;7.80;99.90
27978;DHT22;15314;49.248;6.968;2023-12-22T04:27:12;7.80;99.90
27978;DHT22;15314;49.248;6.968;2023-12-22T04:28:13;7.80;99.90
27978;DHT22;15314;49.248;6.968;2023-12-22T04:29:14;7.80;99.90
27978;DHT22;15314;49.248;6.968;2023-12-22T04:30:15;7.80;99.90
27978;DHT22;15314;49.248;6.968;2023-12-22T04:31:15;7.80;99.90
27978;DHT22;15314;49.248;6.968;2023-12-22T04:32:16;7.70;99.90
27978;DHT22;15314;49.248;6.968;2023-12-22T04:33:16;7.80;99.90
27978;DHT22;15314;49.248;6.968;2023-12-22T04:34:17;7.80;99.90
27978;DHT22;15314;49.248;6.968;2023-12-22T04:35:18;7.80;99.90
27978;DHT22;15314;49.248;6.968;2023-12-22T04:36:18;7.80;99.90
27978;DHT22;15314;49.248;6.968;2023-12-22T04:37:19;7.70;99.90
27978;DHT22;15314;49.248;6.968;2023-12-22T04:38:20;7.70;99.90
27978;DHT22;15314;49.248;6.968;2023-12-22T04:39:20;7.70;99.90
27978;DHT22;15314;49.248;6.968;2023-12-22T04:40:21;7.70;99.90
27978;DHT22;15314;49.248;6.968;2023-12-22T04:41:21;7.70;99.90
27978;DHT22;15314;49.248;6.968;2023-12-22T04:42:22;7.70;99.90
27978;DHT22;15314;49.248;6.968;2023-12-22T04:43:23;7.70;99.90
27978;DHT22;15314;49.248;6.968;2023-12-22T04:44:23;7.70;99.90
27978;DHT22;15314;49.248;6.968;2023-12-22T04:45:24;7.70;99.90
27978;DHT22;15314;49.248;6.968;2023-12-22T04:46:25;7.70;99.90
27978;DHT22;15314;49.248;6.968;2023-12-22T04:47:25;7.70;99.90
27978;DHT22;15314;49.248;6.968;2023-12-22T04:48:26;7.70;99.90
27978;DHT22;15314;49.248;6.968;2023-12-22T04:49:26;7.80;99.90
27978;DHT22;15314;49.248;6.968;2023-12-22T04:50:27;7.70;99.90
27978;DHT22;15314;49.248;6.968;2023-12-22T04:51:28;7.70;99.90
27978;DHT22;15314;49.248;6.968;2023-12-22T04:52:28;7.70;99.90
27978;DHT22;15314;49.248;6.968;2023-12-22T04:53:29;7.80;99.90
27978;DHT22;15314;49.248;6.968;2023-12-22T04:54:29;7.80;99.90
27978;DHT22;15314;49.248;6.968;2023-12-22T04:55:30;7.80;99.90
27978;DHT22;15314;49.248;6.968;2023-12-22T04:56:31;7.90;99.90
27978;DHT22;15314;49.248;6.968;2023-12-22T04:57:32;7.90;99.90
27978;DHT22;15314;49.248;6.968;2023-12-22T04:58:33;8.00;99.90
27978;DHT22;15314;49.248;6.968;2023-12-22T04:59:34;8.00;99.90
27978;DHT22;15314;49.248;6.968;2023-12-22T05:00:34;8.00;99.90
27978;DHT22;15314;49.248;6.968;2023-12-22T05:01:35;8.00;99.90
27978;DHT22;15314;49.248;6.968;2023-12-22T05:02:36;8.10;99.90
27978;DHT22;15314;49.248;6.968;2023-12-22T05:03:36;8.00;99.90
27978;DHT22;15314;49.248;6.968;2023-12-22T05:04:37;8.00;99.90
27978;DHT22;15314;49.248;6.968;2023-12-22T05:05:37;8.00;99.90
27978;DHT22;15314;49.248;6.968;2023-12-22T05:06:38;8.00;99.90
27978;DHT22;15314;49.248;6.968;2023-12-22T05:07:39;8.00;99.90
27978;DHT22;15314;49.248;6.968;2023-12-22T05:08:40;8.00;99.90
27978;DHT22;15314;49.248;6.968;2023-12-22T05:09:42;8.00;99.90
27978;DHT22;15314;49.248;6.968;2023-12-22T05:10:43;8.00;99.90
27978;DHT22;15314;49.248;6.968;2023-12-22T05:11:43;8.00;99.90
27978;DHT22;15314;49.248;6.968;2023-12-22T05:12:44;8.00;99.90
27978;DHT22;15314;49.248;6.968;2023-12-22T05:13:44;8.00;99.90
27978;DHT22;15314;49.248;6.968;2023-12-22T05:14:45;8.00;99.90
27978;DHT22;15314;49.248;6.968;2023-12-22T05:15:46;8.00;99.90
27978;DHT22;15314;49.248;6.968;2023-12-22T05:16:46;8.00;99.90
27978;DHT22;15314;49.248;6.968;2023-12-22T05:17:47;8.00;99.90
27978;DHT22;15314;49.248;6.968;2023-12-22T05:18:48;8.10;99.90
27978;DHT22;15314;49.248;6.968;2023-12-22T05:19:49;8.10;99.90
27978;DHT22;15314;49.248;6.968;2023-12-22T05:20:49;8.10;99.90
27978;DHT22;15314;49.248;6.968;2023-12-22T05:21:50;8.20;99.90
27978;DHT22;15314;49.248;6.968;2023-12-22T05:22:53;8.20;99.90
27978;DHT22;15314;49.248;6.968;2023-12-22T05:23:53;8.20;99.90
27978;DHT22;15314;49.248;6.968;2023-12-22T05:24:54;8.20;99.90
27978;DHT22;15314;49.248;6.968;2023-12-22T05:25:55;8.30;99.90
27978;DHT22;15314;49.248;6.968;2023-12-22T05:26:55;8.30;99.90
27978;DHT22;15314;49.248;6.968;2023-12-22T05:27:56;8.30;99.90
27978;DHT22;15314;49.248;6.968;2023-12-22T05:28:57;8.40;99.90
27978;DHT22;15314;49.248;6.968;2023-12-22T05:29:58;8.40;99.90
27978;DHT22;15314;49.248;6.968;2023-12-22T05:31:02;8.40;99.90
27978;DHT22;15314;49.248;6.968;2023-12-22T05:32:02;8.40;99.90
27978;DHT22;15314;49.248;6.968;2023-12-22T05:33:03;8.40;99.90
27978;DHT22;15314;49.248;6.968;2023-12-22T05:34:04;8.40;99.90
27978;DHT22;15314;49.248;6.968;2023-12-22T05:35:05;8.40;99.90
27978;DHT22;15314;49.248;6.968;2023-12-22T05:36:06;8.40;99.90
27978;DHT22;15314;49.248;6.968;2023-12-22T05:37:07;8.40;99.90
27978;DHT22;15314;49.248;6.968;2023-12-22T05:38:07;8.50;99.90
27978;DHT22;15314;49.248;6.968;2023-12-22T05:39:08;8.40;99.90
27978;DHT22;15314;49.248;6.968;2023-12-22T05:40:10;8.40;99.90
27978;DHT22;15314;49.248;6.968;2023-12-22T05:41:12;8.40;99.90
27978;DHT22;15314;49.248;6.968;2023-12-22T05:42:12;8.50;99.90
27978;DHT22;15314;49.248;6.968;2023-12-22T05:43:13;8.40;99.90
27978;DHT22;15314;49.248;6.968;2023-12-22T05:44:15;8.40;99.90
27978;DHT22;15314;49.248;6.968;2023-12-22T05:45:15;8.40;99.90
27978;DHT22;15314;49.248;6.968;2023-12-22T05:46:16;8.40;99.90
27978;DHT22;15314;49.248;6.968;2023-12-22T05:47:17;8.40;99.90
27978;DHT22;15314;49.248;6.968;2023-12-22T05:48:17;8.30;99.90
27978;DHT22;15314;49.248;6.968;2023-12-22T05:49:19;8.40;99.90
27978;DHT22;15314;49.248;6.968;2023-12-22T05:50:20;8.40;99.90
27978;DHT22;15314;49.248;6.968;2023-12-22T05:51:20;8.30;99.90
27978;DHT22;15314;49.248;6.968;2023-12-22T05:52:22;8.30;99.90
27978;DHT22;15314;49.248;6.968;2023-12-22T05:53:22;8.30;99.90
27978;DHT22;15314;49.248;6.968;2023-12-22T05:54:23;8.40;99.90
27978;DHT22;15314;49.248;6.968;2023-12-22T05:55:25;8.40;99.90
27978;DHT22;15314;49.248;6.968;2023-12-22T05:56:26;8.50;99.90
27978;DHT22;15314;49.248;6.968;2023-12-22T05:57:26;8.50;99.90
27978;DHT22;15314;49.248;6.968;2023-12-22T05:58:27;8.50;99.90
27978;DHT22;15314;49.248;6.968;2023-12-22T05:59:27;8.50;99.90
27978;DHT22;15314;49.248;6.968;2023-12-22T06:00:28;8.40;99.90
27978;DHT22;15314;49.248;6.968;2023-12-22T06:01:29;8.40;99.90
27978;DHT22;15314;49.248;6.968;2023-12-22T06:02:29;8.50;99.90
27978;DHT22;15314;49.248;6.968;2023-12-22T06:03:30;8.60;99.90
27978;DHT22;15314;49.248;6.968;2023-12-22T06:04:31;8.50;99.90
27978;DHT22;15314;49.248;6.968;2023-12-22T06:05:31;8.60;99.90
27978;DHT22;15314;49.248;6.968;2023-12-22T06:06:32;8.50;99.90
27978;DHT22;15314;49.248;6.968;2023-12-22T06:07:32;8.50;99.90
27978;DHT22;15314;49.248;6.968;2023-12-22T06:08:33;8.50;99.90
27978;DHT22;15314;49.248;6.968;2023-12-22T06:09:34;8.60;99.90
27978;DHT22;15314;49.248;6.968;2023-12-22T06:10:34;8.50;99.90
27978;DHT22;15314;49.248;6.968;2023-12-22T06:11:36;8.50;99.90
27978;DHT22;15314;49.248;6.968;2023-12-22T06:12:37;8.40;99.90
27978;DHT22;15314;49.248;6.968;2023-12-22T06:13:37;8.40;99.90
27978;DHT22;15314;49.248;6.968;2023-12-22T06:14:38;8.40;99.90
27978;DHT22;15314;49.248;6.968;2023-12-22T06:15:39;8.40;99.90
27978;DHT22;15314;49.248;6.968;2023-12-22T06:16:39;8.40;99.90
27978;DHT22;15314;49.248;6.968;2023-12-22T06:17:40;8.30;99.90
27978;DHT22;15314;49.248;6.968;2023-12-22T06:18:41;8.30;99.90
27978;DHT22;15314;49.248;6.968;2023-12-22T06:19:42;8.30;99.90
27978;DHT22;15314;49.248;6.968;2023-12-22T06:20:43;8.30;99.90
27978;DHT22;15314;49.248;6.968;2023-12-22T06:21:43;8.30;99.90
27978;DHT22;15314;49.248;6.968;2023-12-22T06:22:44;8.40;99.90
27978;DHT22;15314;49.248;6.968;2023-12-22T06:23:44;8.30;99.90
27978;DHT22;15314;49.248;6.968;2023-12-22T06:24:45;8.30;99.90
27978;DHT22;15314;49.248;6.968;2023-12-22T06:25:45;8.30;99.90
27978;DHT22;15314;49.248;6.968;2023-12-22T06:26:46;8.30;99.90
27978;DHT22;15314;49.248;6.968;2023-12-22T06:27:47;8.30;99.90
27978;DHT22;15314;49.248;6.968;2023-12-22T06:28:48;8.30;99.90
27978;DHT22;15314;49.248;6.968;2023-12-22T06:29:48;8.40;99.90
27978;DHT22;15314;49.248;6.968;2023-12-22T06:30:49;8.30;99.90
27978;DHT22;15314;49.248;6.968;2023-12-22T06:31:50;8.50;99.90
27978;DHT22;15314;49.248;6.968;2023-12-22T06:32:51;8.30;99.90
27978;DHT22;15314;49.248;6.968;2023-12-22T06:33:51;8.30;99.90
27978;DHT22;15314;49.248;6.968;2023-12-22T06:34:52;8.30;99.90